Time;durP1;ratioP1;P1;durP2;ratioP2;P2;SDS_P1;SDS_P2;PMS_P1;PMS_P2;Temp;Humidity;BMP_temperature;BMP_pressure;BME280_temperature;BME280_humidity;BME280_pressure;Samples;Min_cycle;Max_cycle;Signal;HPM_P1;HPM_P2
2022/07/05 00:02:02;;;;;;;;;;;17.50;99.90;;;;;;4957635;29;19921;-78
2022/07/05 00:04:28;;;;;;;;;;;17.70;99.90;;;;;;4940453;29;19962;-78
2022/07/05 00:09:37;;;;;;;;;;;18.00;99.90;;;;;;4957343;29;20302;-80
2022/07/05 00:12:03;;;;;;;;;;;17.70;99.90;;;;;;4957980;28;19910;-79
2022/07/05 00:14:29;;;;;;;;;;;17.70;99.90;;;;;;4957799;29;19910;-79
2022/07/05 00:16:54;;;;;;;;;;;17.70;99.90;;;;;;4957617;28;19946;-79
2022/07/05 00:19:20;;;;;;;;;;;17.70;99.90;;;;;;4957577;28;19911;-78
2022/07/05 00:21:45;;;;;;;;;;;17.50;99.90;;;;;;4957289;28;20291;-79
2022/07/05 00:24:11;;;;;;;;;;;17.40;99.90;;;;;;4957343;29;19911;-79
2022/07/05 00:26:36;;;;;;;;;;;17.40;99.90;;;;;;4957256;29;19932;-79
2022/07/05 00:29:02;;;;;;;;;;;17.30;99.90;;;;;;4957255;29;19911;-79
2022/07/05 00:31:28;;;;;;;;;;;17.30;99.90;;;;;;4957278;29;20009;-78
2022/07/05 00:33:53;;;;;;;;;;;17.20;99.90;;;;;;4957122;29;19911;-78
2022/07/05 00:36:19;;;;;;;;;;;17.20;99.90;;;;;;4957093;29;19911;-80
2022/07/05 00:38:44;;;;;;;;;;;17.30;99.90;;;;;;4957147;29;20376;-79
2022/07/05 00:41:10;;;;;;;;;;;17.20;99.90;;;;;;4956899;29;20028;-79
2022/07/05 00:43:35;;;;;;;;;;;17.10;99.90;;;;;;4956927;29;19910;-79
2022/07/05 00:46:01;;;;;;;;;;;16.90;99.90;;;;;;4957313;28;19910;-79
2022/07/05 00:48:27;;;;;;;;;;;16.80;99.90;;;;;;4956796;28;19910;-80
2022/07/05 00:50:52;;;;;;;;;;;16.80;99.90;;;;;;4956798;28;19957;-78
2022/07/05 00:53:18;;;;;;;;;;;16.60;99.90;;;;;;4956486;28;19953;-79
2022/07/05 00:55:44;;;;;;;;;;;16.60;99.90;;;;;;4956746;29;19911;-79
2022/07/05 00:58:10;;;;;;;;;;;16.50;99.90;;;;;;4956672;29;20002;-78
2022/07/05 01:00:36;;;;;;;;;;;16.40;99.90;;;;;;4956900;29;19950;-79
2022/07/05 01:03:02;;;;;;;;;;;16.50;99.90;;;;;;4955845;29;19960;-79
2022/07/05 01:05:28;;;;;;;;;;;16.40;99.90;;;;;;4956471;29;19984;-79
2022/07/05 01:07:54;;;;;;;;;;;16.50;99.90;;;;;;4956524;29;19911;-79
2022/07/05 01:10:20;;;;;;;;;;;16.40;99.90;;;;;;4939282;29;19918;-80
2022/07/05 01:12:46;;;;;;;;;;;16.30;99.90;;;;;;4956668;29;19910;-79
2022/07/05 01:15:11;;;;;;;;;;;16.40;99.90;;;;;;4956548;29;20287;-79
2022/07/05 01:17:37;;;;;;;;;;;16.40;99.90;;;;;;4956348;28;19911;-78
2022/07/05 01:20:04;;;;;;;;;;;16.30;99.90;;;;;;4939135;29;19910;-78
2022/07/05 01:22:49;;;;;;;;;;;16.30;99.90;;;;;;4938907;29;20407;-78
2022/07/05 01:25:14;;;;;;;;;;;16.10;99.90;;;;;;4956237;28;19956;-80
2022/07/05 01:27:40;;;;;;;;;;;16.10;99.90;;;;;;4956172;28;20009;-79
2022/07/05 01:30:06;;;;;;;;;;;15.90;99.90;;;;;;4956115;28;20386;-79
2022/07/05 01:32:31;;;;;;;;;;;15.90;99.90;;;;;;4956248;28;19911;-79
2022/07/05 01:34:57;;;;;;;;;;;15.90;99.90;;;;;;4956067;28;19911;-78
2022/07/05 01:37:22;;;;;;;;;;;15.80;99.90;;;;;;4956112;28;19910;-80
2022/07/05 01:39:48;;;;;;;;;;;15.90;99.90;;;;;;4956019;28;20002;-78
2022/07/05 01:42:14;;;;;;;;;;;16.10;99.90;;;;;;4956219;29;19914;-79
2022/07/05 01:44:39;;;;;;;;;;;16.00;99.90;;;;;;4955897;28;19922;-78
2022/07/05 01:47:06;;;;;;;;;;;16.00;99.90;;;;;;4955835;29;19919;-79
2022/07/05 01:49:34;;;;;;;;;;;16.00;99.90;;;;;;4955543;28;20005;-80
2022/07/05 01:52:04;;;;;;;;;;;16.00;99.90;;;;;;4955427;29;19965;-79
2022/07/05 01:54:30;;;;;;;;;;;15.80;99.90;;;;;;4955893;29;19910;-79
2022/07/05 01:56:56;;;;;;;;;;;15.80;99.90;;;;;;4955795;29;19910;-79
2022/07/05 01:59:21;;;;;;;;;;;15.80;99.90;;;;;;4955699;29;19965;-79
2022/07/05 02:01:47;;;;;;;;;;;15.70;99.90;;;;;;4955588;28;19922;-79
2022/07/05 02:04:12;;;;;;;;;;;15.70;99.90;;;;;;4955668;28;19915;-80
2022/07/05 02:06:38;;;;;;;;;;;15.70;99.90;;;;;;4954922;29;19915;-80
2022/07/05 02:09:05;;;;;;;;;;;15.60;99.90;;;;;;4955713;28;20353;-79
2022/07/05 02:11:31;;;;;;;;;;;15.60;99.90;;;;;;4955554;29;19953;-78
2022/07/05 02:13:59;;;;;;;;;;;15.60;99.90;;;;;;4955592;29;19910;-79
2022/07/05 02:16:25;;;;;;;;;;;15.50;99.90;;;;;;4955631;29;19949;-78
2022/07/05 02:18:51;;;;;;;;;;;15.30;99.90;;;;;;4955526;29;19911;-79
2022/07/05 02:21:16;;;;;;;;;;;15.20;99.90;;;;;;4938219;29;19965;-78
2022/07/05 02:23:42;;;;;;;;;;;15.20;99.90;;;;;;4955495;29;19993;-78
2022/07/05 02:26:07;;;;;;;;;;;15.20;99.90;;;;;;4955729;29;19918;-79
2022/07/05 02:28:33;;;;;;;;;;;15.10;99.90;;;;;;4955531;29;20339;-79
2022/07/05 02:30:58;;;;;;;;;;;15.10;99.90;;;;;;4955401;29;19993;-79
2022/07/05 02:33:24;;;;;;;;;;;15.00;99.90;;;;;;4955441;29;19910;-78
2022/07/05 02:35:50;;;;;;;;;;;15.10;99.90;;;;;;4955676;29;19911;-79
2022/07/05 02:38:15;;;;;;;;;;;15.20;99.90;;;;;;4955364;29;19911;-78
2022/07/05 02:40:41;;;;;;;;;;;15.20;99.90;;;;;;4955475;29;20364;-78
2022/07/05 02:43:06;;;;;;;;;;;15.10;99.90;;;;;;4955216;29;19915;-80
2022/07/05 02:45:32;;;;;;;;;;;15.00;99.90;;;;;;4955395;29;19917;-79
2022/07/05 02:47:58;;;;;;;;;;;14.90;99.90;;;;;;4955239;29;19918;-79
2022/07/05 02:50:23;;;;;;;;;;;14.90;99.90;;;;;;4955084;28;20013;-78
2022/07/05 02:52:49;;;;;;;;;;;14.70;99.90;;;;;;4955142;28;20371;-80
2022/07/05 02:55:14;;;;;;;;;;;14.40;99.90;;;;;;4955152;28;19915;-78
2022/07/05 02:57:40;;;;;;;;;;;14.20;99.90;;;;;;4955198;29;19911;-78
2022/07/05 03:00:06;;;;;;;;;;;13.80;99.90;;;;;;4955190;29;19910;-79
2022/07/05 03:02:32;;;;;;;;;;;13.30;99.90;;;;;;4954996;28;19954;-80
2022/07/05 03:04:57;;;;;;;;;;;13.30;99.90;;;;;;4955167;28;20075;-79
2022/07/05 03:07:23;;;;;;;;;;;13.60;99.90;;;;;;4955503;28;20434;-79
2022/07/05 03:09:48;;;;;;;;;;;13.50;99.90;;;;;;4955021;29;19953;-78
2022/07/05 03:12:14;;;;;;;;;;;13.30;99.90;;;;;;4955018;29;19914;-79
2022/07/05 03:14:40;;;;;;;;;;;13.20;99.90;;;;;;4955066;28;19914;-78
2022/07/05 03:17:05;;;;;;;;;;;13.30;99.90;;;;;;4956104;28;19918;-78
2022/07/05 03:19:31;;;;;;;;;;;13.70;99.90;;;;;;4958480;28;20299;-79
2022/07/05 03:21:56;;;;;;;;;;;14.10;99.90;;;;;;4958575;28;19917;-79
2022/07/05 03:24:22;;;;;;;;;;;14.30;99.90;;;;;;4958627;29;20417;-78
2022/07/05 03:26:47;;;;;;;;;;;14.40;99.90;;;;;;4958378;29;19915;-79
2022/07/05 03:29:13;;;;;;;;;;;14.40;99.90;;;;;;4958631;29;19910;-80
2022/07/05 03:31:39;;;;;;;;;;;14.30;99.90;;;;;;4958646;29;19921;-78
2022/07/05 03:34:04;;;;;;;;;;;14.20;99.90;;;;;;4958524;29;19911;-79
2022/07/05 03:36:30;;;;;;;;;;;14.20;99.90;;;;;;4958223;29;19911;-78
2022/07/05 03:38:55;;;;;;;;;;;14.20;99.90;;;;;;4958175;29;20316;-79
2022/07/05 03:41:21;;;;;;;;;;;14.20;99.90;;;;;;4958147;29;19910;-79
2022/07/05 03:43:47;;;;;;;;;;;14.20;99.90;;;;;;4958303;29;20023;-79
2022/07/05 03:46:12;;;;;;;;;;;14.20;99.90;;;;;;4957972;29;19910;-80
2022/07/05 03:48:38;;;;;;;;;;;14.20;99.90;;;;;;4957898;29;19962;-78
2022/07/05 03:51:04;;;;;;;;;;;14.10;99.90;;;;;;4957730;28;19922;-79
2022/07/05 03:53:29;;;;;;;;;;;14.20;99.90;;;;;;4957910;29;19914;-79
2022/07/05 03:55:55;;;;;;;;;;;14.10;99.90;;;;;;4957848;29;19911;-79
2022/07/05 03:58:20;;;;;;;;;;;14.10;99.90;;;;;;4957782;28;19911;-80
2022/07/05 04:00:46;;;;;;;;;;;14.20;99.90;;;;;;4957770;28;19910;-79
2022/07/05 04:03:11;;;;;;;;;;;14.20;99.90;;;;;;4957708;28;19919;-79
2022/07/05 04:05:37;;;;;;;;;;;14.30;99.90;;;;;;4957716;28;20323;-80
2022/07/05 04:08:03;;;;;;;;;;;14.30;99.90;;;;;;4957326;29;19910;-78
2022/07/05 04:10:28;;;;;;;;;;;14.20;99.90;;;;;;4957741;28;19914;-79
2022/07/05 04:12:54;;;;;;;;;;;14.20;99.90;;;;;;4957511;29;19915;-78
2022/07/05 04:15:19;;;;;;;;;;;14.10;99.90;;;;;;4957443;29;19917;-79
2022/07/05 04:17:46;;;;;;;;;;;13.60;99.90;;;;;;4957406;28;20331;-79
2022/07/05 04:20:11;;;;;;;;;;;13.50;99.90;;;;;;4957383;29;19918;-79
2022/07/05 04:22:37;;;;;;;;;;;13.80;99.90;;;;;;4957486;29;20299;-78
2022/07/05 04:25:18;;;;;;;;;;;14.10;99.90;;;;;;4957328;29;19911;-80
2022/07/05 04:27:47;;;;;;;;;;;14.30;99.90;;;;;;4957271;28;19911;-78
2022/07/05 04:30:13;;;;;;;;;;;14.40;99.90;;;;;;4956867;28;19910;-78
2022/07/05 04:32:38;;;;;;;;;;;14.30;99.90;;;;;;4957458;29;19926;-80
2022/07/05 04:35:04;;;;;;;;;;;14.30;99.90;;;;;;4957129;29;19911;-78
2022/07/05 04:37:30;;;;;;;;;;;14.10;99.90;;;;;;4957115;28;20410;-79
2022/07/05 04:39:55;;;;;;;;;;;13.90;99.90;;;;;;4957050;28;20287;-79
2022/07/05 04:42:21;;;;;;;;;;;13.80;99.90;;;;;;4956982;29;20005;-78
2022/07/05 04:44:46;;;;;;;;;;;13.50;99.90;;;;;;4957488;28;19911;-79
2022/07/05 04:47:12;;;;;;;;;;;13.50;99.90;;;;;;4956819;28;20434;-78
2022/07/05 04:49:37;;;;;;;;;;;13.80;99.90;;;;;;4956970;29;20410;-78
2022/07/05 04:52:03;;;;;;;;;;;14.00;99.90;;;;;;4956406;29;20009;-79
2022/07/05 04:54:29;;;;;;;;;;;14.20;99.90;;;;;;4957204;28;19911;-77
2022/07/05 04:56:54;;;;;;;;;;;14.50;99.90;;;;;;4956790;29;19914;-79
2022/07/05 04:59:20;;;;;;;;;;;14.60;99.90;;;;;;4956813;28;19915;-77
2022/07/05 05:01:45;;;;;;;;;;;14.70;99.90;;;;;;4956755;28;19910;-77
2022/07/05 05:04:11;;;;;;;;;;;14.70;99.90;;;;;;4956894;29;20430;-79
2022/07/05 05:06:37;;;;;;;;;;;14.70;99.90;;;;;;4956498;29;19911;-79
2022/07/05 05:09:02;;;;;;;;;;;14.80;99.90;;;;;;4956486;28;19911;-79
2022/07/05 05:11:28;;;;;;;;;;;14.90;99.90;;;;;;4938987;29;20347;-79
2022/07/05 05:13:54;;;;;;;;;;;15.00;99.90;;;;;;4939237;29;19991;-80
2022/07/05 05:16:20;;;;;;;;;;;15.10;99.90;;;;;;4956401;29;19910;-80
2022/07/05 05:18:45;;;;;;;;;;;15.10;99.90;;;;;;4956582;28;20394;-78
2022/07/05 05:21:11;;;;;;;;;;;15.10;99.90;;;;;;4956678;29;20340;-79
2022/07/05 05:23:37;;;;;;;;;;;15.10;99.90;;;;;;4956427;29;19917;-79
2022/07/05 05:26:02;;;;;;;;;;;15.10;99.90;;;;;;4956390;29;19910;-80
2022/07/05 05:28:28;;;;;;;;;;;15.20;99.90;;;;;;4956210;29;19954;-80
2022/07/05 05:30:53;;;;;;;;;;;15.30;99.90;;;;;;4956142;29;19911;-79
2022/07/05 05:33:19;;;;;;;;;;;15.40;99.90;;;;;;4955991;29;20360;-79
2022/07/05 05:35:45;;;;;;;;;;;15.30;99.90;;;;;;4956084;29;19910;-79
2022/07/05 05:38:10;;;;;;;;;;;15.40;99.90;;;;;;4956132;29;19914;-79
2022/07/05 05:40:41;;;;;;;;;;;15.80;99.90;;;;;;4955970;28;20001;-79
2022/07/05 05:43:06;;;;;;;;;;;16.20;99.90;;;;;;4956688;29;19910;-79
2022/07/05 05:45:32;;;;;;;;;;;16.40;99.90;;;;;;4956055;29;20009;-80
2022/07/05 05:47:58;;;;;;;;;;;16.40;99.90;;;;;;4955852;29;19917;-79
2022/07/05 05:50:24;;;;;;;;;;;16.30;99.90;;;;;;4955575;28;19973;-79
2022/07/05 05:52:49;;;;;;;;;;;16.20;99.90;;;;;;4955712;29;19914;-79
2022/07/05 05:55:15;;;;;;;;;;;16.20;99.90;;;;;;4956031;28;19911;-79
2022/07/05 05:57:41;;;;;;;;;;;16.10;99.90;;;;;;4955750;29;19917;-79
2022/07/05 06:00:07;;;;;;;;;;;16.30;99.90;;;;;;4955826;28;20283;-79
2022/07/05 06:02:33;;;;;;;;;;;16.30;99.90;;;;;;4955595;28;20375;-79
2022/07/05 06:04:58;;;;;;;;;;;16.40;99.90;;;;;;4955655;28;19930;-79
2022/07/05 06:07:24;;;;;;;;;;;16.40;99.90;;;;;;4955772;28;19989;-79
2022/07/05 06:09:50;;;;;;;;;;;16.40;99.90;;;;;;4955663;29;19917;-79
2022/07/05 06:12:15;;;;;;;;;;;16.50;99.90;;;;;;4955484;28;20291;-78
2022/07/05 06:14:41;;;;;;;;;;;16.60;99.90;;;;;;4955935;29;20005;-80
2022/07/05 06:17:06;;;;;;;;;;;17.00;99.90;;;;;;4955853;29;19914;-80
2022/07/05 06:19:32;;;;;;;;;;;17.60;99.90;;;;;;4955559;29;19942;-79
2022/07/05 06:21:58;;;;;;;;;;;17.90;99.90;;;;;;4954573;29;20272;-80
2022/07/05 06:24:23;;;;;;;;;;;18.30;99.90;;;;;;4938201;29;19911;-80
2022/07/05 06:26:49;;;;;;;;;;;18.50;99.90;;;;;;4955126;28;19953;-79
2022/07/05 06:29:15;;;;;;;;;;;18.80;99.90;;;;;;4955398;28;19910;-80
2022/07/05 06:31:40;;;;;;;;;;;18.90;99.90;;;;;;4955306;28;19969;-79
2022/07/05 06:34:06;;;;;;;;;;;19.00;99.90;;;;;;4955435;28;19953;-80
2022/07/05 06:36:32;;;;;;;;;;;19.10;99.90;;;;;;4955392;28;19915;-79
2022/07/05 06:38:57;;;;;;;;;;;19.10;99.90;;;;;;4955389;29;20299;-81
2022/07/05 06:41:23;;;;;;;;;;;19.30;99.90;;;;;;4938135;29;19910;-79
2022/07/05 06:43:49;;;;;;;;;;;19.40;99.90;;;;;;4955325;28;19914;-79
2022/07/05 06:46:14;;;;;;;;;;;19.40;99.90;;;;;;4955350;29;19918;-79
2022/07/05 06:48:40;;;;;;;;;;;19.70;99.90;;;;;;4955245;28;19910;-80
2022/07/05 06:51:06;;;;;;;;;;;20.00;99.90;;;;;;4955060;28;19922;-80
2022/07/05 06:53:31;;;;;;;;;;;20.20;99.90;;;;;;4958570;29;19921;-80
2022/07/05 06:56:02;;;;;;;;;;;20.60;99.90;;;;;;4959128;28;19917;-79
2022/07/05 06:58:28;;;;;;;;;;;20.60;99.90;;;;;;4964707;28;19914;-79
2022/07/05 07:00:54;;;;;;;;;;;20.40;99.90;;;;;;4978206;28;20285;-80
2022/07/05 07:03:19;;;;;;;;;;;20.60;99.90;;;;;;4967421;28;19936;-79
2022/07/05 07:05:45;;;;;;;;;;;20.80;99.90;;;;;;4968479;28;19961;-80
2022/07/05 07:10:55;;;;;;;;;;;21.30;99.90;;;;;;4958572;29;20418;-82
2022/07/05 07:13:20;;;;;;;;;;;21.80;99.90;;;;;;4958941;29;19914;-79
2022/07/05 07:15:47;;;;;;;;;;;21.80;99.90;;;;;;4959307;28;19921;-79
2022/07/05 07:18:14;;;;;;;;;;;21.80;99.90;;;;;;4958783;29;20287;-79
2022/07/05 07:20:39;;;;;;;;;;;22.10;99.90;;;;;;4969576;28;19924;-79
2022/07/05 07:23:05;;;;;;;;;;;22.20;99.90;;;;;;4977885;28;19910;-80
2022/07/05 07:25:30;;;;;;;;;;;22.10;99.90;;;;;;4977705;28;19997;-80
2022/07/05 07:27:56;;;;;;;;;;;22.00;99.90;;;;;;4977661;28;19910;-80
2022/07/05 07:30:23;;;;;;;;;;;22.20;99.90;;;;;;4977876;28;20314;-79
2022/07/05 07:32:49;;;;;;;;;;;22.40;99.90;;;;;;4976818;28;19918;-80
2022/07/05 07:35:15;;;;;;;;;;;22.20;99.90;;;;;;4976788;28;19911;-78
2022/07/05 07:37:40;;;;;;;;;;;22.20;99.90;;;;;;4976789;28;20294;-79
2022/07/05 07:40:06;;;;;;;;;;;22.00;99.90;;;;;;4977150;28;19989;-78
2022/07/05 07:42:32;;;;;;;;;;;22.00;99.90;;;;;;4977111;28;19910;-79
2022/07/05 07:44:57;;;;;;;;;;;22.30;99.90;;;;;;4977287;28;19916;-79
2022/07/05 07:47:23;;;;;;;;;;;22.30;98.90;;;;;;4977761;28;19918;-79
2022/07/05 07:49:49;;;;;;;;;;;22.20;99.90;;;;;;4977332;28;19980;-79
2022/07/05 07:52:15;;;;;;;;;;;22.40;98.80;;;;;;4959346;28;19922;-79
2022/07/05 07:54:40;;;;;;;;;;;22.30;98.20;;;;;;4977279;28;19910;-79
2022/07/05 07:57:06;;;;;;;;;;;22.10;96.80;;;;;;4977356;28;20383;-80
2022/07/05 07:59:32;;;;;;;;;;;22.20;97.20;;;;;;4977299;28;19914;-79
2022/07/05 08:01:57;;;;;;;;;;;22.20;96.70;;;;;;4977339;28;19910;-79
2022/07/05 08:04:23;;;;;;;;;;;22.70;97.10;;;;;;4975984;28;19957;-78
2022/07/05 08:06:49;;;;;;;;;;;23.20;94.30;;;;;;4977161;28;20005;-79
2022/07/05 08:09:14;;;;;;;;;;;23.50;94.30;;;;;;4976852;28;19917;-80
2022/07/05 08:11:40;;;;;;;;;;;23.50;93.50;;;;;;4976872;28;19965;-80
2022/07/05 08:14:05;;;;;;;;;;;23.50;93.30;;;;;;4976817;28;20383;-79
2022/07/05 08:16:31;;;;;;;;;;;23.50;93.50;;;;;;4976819;28;19917;-79
2022/07/05 08:21:41;;;;;;;;;;;23.90;93.40;;;;;;4976527;28;19941;-79
2022/07/05 08:24:08;;;;;;;;;;;27.10;82.90;;;;;;4977454;28;20000;-80
2022/07/05 08:26:34;;;;;;;;;;;26.50;79.30;;;;;;4976599;28;19916;-80
2022/07/05 08:29:03;;;;;;;;;;;25.80;81.20;;;;;;4976588;28;19910;-80
2022/07/05 08:31:30;;;;;;;;;;;25.10;83.80;;;;;;4976543;28;20371;-80
2022/07/05 08:33:56;;;;;;;;;;;24.50;86.80;;;;;;4976677;28;19910;-81
2022/07/05 08:36:22;;;;;;;;;;;25.10;86.60;;;;;;4976331;28;19910;-79
2022/07/05 08:38:47;;;;;;;;;;;25.50;84.20;;;;;;4976590;28;19942;-81
2022/07/05 08:41:16;;;;;;;;;;;26.90;80.40;;;;;;4976377;28;19946;-80
2022/07/05 08:43:43;;;;;;;;;;;27.10;77.20;;;;;;4976405;28;19945;-80
2022/07/05 08:46:10;;;;;;;;;;;26.30;76.60;;;;;;4976261;28;20004;-80
2022/07/05 08:48:43;;;;;;;;;;;25.50;78.50;;;;;;4976220;28;19917;-80
2022/07/05 08:51:13;;;;;;;;;;;25.10;80.90;;;;;;4976265;28;19930;-80
2022/07/05 08:53:41;;;;;;;;;;;25.20;80.70;;;;;;4976218;28;19914;-78
2022/07/05 08:56:07;;;;;;;;;;;25.50;80.80;;;;;;4976055;28;20446;-80
2022/07/05 08:58:33;;;;;;;;;;;26.40;78.30;;;;;;4976256;28;19938;-80
2022/07/05 09:00:59;;;;;;;;;;;25.80;76.40;;;;;;4976352;28;19953;-79
2022/07/05 09:03:27;;;;;;;;;;;26.70;77.50;;;;;;4976008;28;19918;-81
2022/07/05 09:05:56;;;;;;;;;;;27.80;71.80;;;;;;4975993;28;19993;-81
2022/07/05 09:08:21;;;;;;;;;;;28.60;70.90;;;;;;4975816;28;19910;-81
2022/07/05 09:10:47;;;;;;;;;;;29.70;67.50;;;;;;4976189;28;20371;-80
2022/07/05 09:13:13;;;;;;;;;;;28.30;67.90;;;;;;4975693;28;19914;-79
2022/07/05 09:15:39;;;;;;;;;;;27.20;69.80;;;;;;4975630;28;19993;-79
2022/07/05 09:18:04;;;;;;;;;;;26.30;70.90;;;;;;4975713;28;19910;-80
2022/07/05 09:20:30;;;;;;;;;;;26.40;73.30;;;;;;4975721;28;19910;-80
2022/07/05 09:22:56;;;;;;;;;;;26.50;71.70;;;;;;4975584;28;19911;-79
2022/07/05 09:25:27;;;;;;;;;;;27.50;69.50;;;;;;4975957;28;19914;-80
2022/07/05 09:27:53;;;;;;;;;;;28.20;68.20;;;;;;4975492;28;19910;-79
2022/07/05 09:30:38;;;;;;;;;;;28.20;66.20;;;;;;4975507;28;19914;-79
2022/07/05 09:33:03;;;;;;;;;;;28.60;65.50;;;;;;4975380;28;19914;-79
2022/07/05 09:35:29;;;;;;;;;;;28.80;65.80;;;;;;4975478;28;20008;-79
2022/07/05 09:37:55;;;;;;;;;;;29.30;65.70;;;;;;4975646;28;19917;-80
2022/07/05 09:40:21;;;;;;;;;;;29.10;63.60;;;;;;4975306;28;19910;-79
2022/07/05 09:42:46;;;;;;;;;;;28.70;64.60;;;;;;4974056;28;20379;-80
2022/07/05 09:45:13;;;;;;;;;;;27.90;64.30;;;;;;4975147;28;19914;-81
2022/07/05 09:47:38;;;;;;;;;;;28.40;66.20;;;;;;4975438;28;20021;-80
2022/07/05 09:50:05;;;;;;;;;;;29.20;64.10;;;;;;4974972;28;19910;-79
2022/07/05 09:52:33;;;;;;;;;;;29.80;63.20;;;;;;4975268;28;19914;-80
2022/07/05 09:55:09;;;;;;;;;;;30.80;62.90;;;;;;4975095;28;19960;-80
2022/07/05 09:57:41;;;;;;;;;;;31.30;60.20;;;;;;4975251;28;20389;-80
2022/07/05 10:00:08;;;;;;;;;;;31.10;59.30;;;;;;4975220;28;19910;-81
2022/07/05 10:02:41;;;;;;;;;;;31.10;59.40;;;;;;4975049;28;19917;-79
2022/07/05 10:05:13;;;;;;;;;;;31.10;59.80;;;;;;4975024;28;19917;-78
2022/07/05 10:07:44;;;;;;;;;;;30.50;58.80;;;;;;4974954;28;20290;-79
2022/07/05 10:10:13;;;;;;;;;;;31.30;59.10;;;;;;4974900;28;19917;-80
2022/07/05 10:12:39;;;;;;;;;;;31.40;58.40;;;;;;4975075;28;19918;-80
2022/07/05 10:15:07;;;;;;;;;;;31.00;58.80;;;;;;4975502;28;19917;-79
2022/07/05 10:17:35;;;;;;;;;;;31.50;59.10;;;;;;4975029;28;19910;-79
2022/07/05 10:20:02;;;;;;;;;;;31.90;57.30;;;;;;4974783;28;19910;-79
2022/07/05 10:22:28;;;;;;;;;;;31.80;57.00;;;;;;4973572;28;19914;-79
2022/07/05 10:24:54;;;;;;;;;;;31.60;57.70;;;;;;4974971;28;19910;-78
2022/07/05 10:27:19;;;;;;;;;;;31.80;57.20;;;;;;4976581;28;20401;-80
2022/07/05 10:29:45;;;;;;;;;;;32.00;57.50;;;;;;4978871;28;19949;-78
2022/07/05 10:32:13;;;;;;;;;;;32.30;56.50;;;;;;4978632;28;20449;-79
2022/07/05 10:34:40;;;;;;;;;;;31.90;57.10;;;;;;4978768;28;19914;-80
2022/07/05 10:37:06;;;;;;;;;;;32.20;57.50;;;;;;4979242;28;20382;-79
2022/07/05 10:39:32;;;;;;;;;;;31.50;57.60;;;;;;4970657;28;19942;-79
2022/07/05 10:41:58;;;;;;;;;;;32.30;56.80;;;;;;4963934;28;19984;-79
2022/07/05 10:44:35;;;;;;;;;;;33.10;57.20;;;;;;4965413;28;20426;-79
2022/07/05 10:47:11;;;;;;;;;;;32.60;57.00;;;;;;4964103;28;19914;-79
2022/07/05 10:49:37;;;;;;;;;;;32.30;56.70;;;;;;4966818;28;19911;-77
2022/07/05 10:52:04;;;;;;;;;;;32.70;56.90;;;;;;4968755;28;19929;-80
2022/07/05 10:54:29;;;;;;;;;;;32.70;56.60;;;;;;4968598;28;20011;-79
2022/07/05 10:57:14;;;;;;;;;;;32.60;56.60;;;;;;4967118;28;19911;-79
2022/07/05 10:59:58;;;;;;;;;;;32.40;56.60;;;;;;4969007;28;19921;-79
2022/07/05 11:02:24;;;;;;;;;;;32.90;56.10;;;;;;4966387;28;20017;-79
2022/07/05 11:04:55;;;;;;;;;;;33.10;54.80;;;;;;4968373;28;19958;-78
2022/07/05 11:07:40;;;;;;;;;;;33.30;54.80;;;;;;4967129;28;20436;-79
2022/07/05 11:10:07;;;;;;;;;;;33.50;54.20;;;;;;4967730;28;19911;-79
2022/07/05 11:12:37;;;;;;;;;;;33.80;53.90;;;;;;4967037;28;19918;-80
2022/07/05 11:15:08;;;;;;;;;;;33.60;53.80;;;;;;4970389;28;19910;-79
2022/07/05 11:17:36;;;;;;;;;;;33.60;54.30;;;;;;4966696;28;19917;-79
2022/07/05 11:20:07;;;;;;;;;;;34.00;54.30;;;;;;4968351;28;19910;-79
2022/07/05 11:22:34;;;;;;;;;;;34.10;54.30;;;;;;4968244;28;19921;-80
2022/07/05 11:25:00;;;;;;;;;;;34.00;53.50;;;;;;4968598;28;19914;-80
2022/07/05 11:27:26;;;;;;;;;;;33.90;53.90;;;;;;4967727;28;19953;-79
2022/07/05 11:29:53;;;;;;;;;;;34.10;54.10;;;;;;4967447;28;20362;-79
2022/07/05 11:32:37;;;;;;;;;;;33.90;53.20;;;;;;4971536;28;19910;-79
2022/07/05 11:35:16;;;;;;;;;;;33.90;53.50;;;;;;4977768;28;20252;-79
2022/07/05 11:38:02;;;;;;;;;;;34.00;52.60;;;;;;4977477;28;19917;-79
2022/07/05 11:40:32;;;;;;;;;;;34.20;52.70;;;;;;4977437;28;19910;-78
2022/07/05 11:42:58;;;;;;;;;;;34.10;53.00;;;;;;4977359;28;19914;-79
2022/07/05 11:45:24;;;;;;;;;;;34.30;52.90;;;;;;4977410;28;19917;-78
2022/07/05 11:47:50;;;;;;;;;;;34.50;52.40;;;;;;4977247;28;19910;-79
2022/07/05 11:50:16;;;;;;;;;;;34.60;52.20;;;;;;4977158;28;19926;-79
2022/07/05 11:52:42;;;;;;;;;;;35.10;52.40;;;;;;4977839;28;19980;-80
2022/07/05 11:55:10;;;;;;;;;;;35.10;52.00;;;;;;4977180;28;20359;-78
2022/07/05 11:57:37;;;;;;;;;;;34.80;52.10;;;;;;4977389;28;19914;-78
2022/07/05 12:00:05;;;;;;;;;;;35.40;52.20;;;;;;4977148;28;20004;-78
2022/07/05 12:02:31;;;;;;;;;;;35.40;52.10;;;;;;4977055;28;19917;-79
2022/07/05 12:04:57;;;;;;;;;;;34.80;52.30;;;;;;4977027;28;20260;-78
2022/07/05 12:07:29;;;;;;;;;;;35.20;52.40;;;;;;4976996;28;20051;-79
2022/07/05 12:12:42;;;;;;;;;;;35.10;50.60;;;;;;4976952;28;20451;-80
2022/07/05 12:15:08;;;;;;;;;;;35.30;51.20;;;;;;4977127;28;19910;-80
2022/07/05 12:17:35;;;;;;;;;;;35.40;50.80;;;;;;4976859;28;19994;-78
2022/07/05 12:20:01;;;;;;;;;;;35.50;51.10;;;;;;4976864;28;19914;-79
2022/07/05 12:22:33;;;;;;;;;;;35.60;50.80;;;;;;4976554;28;20351;-79
2022/07/05 12:25:00;;;;;;;;;;;36.10;50.90;;;;;;4976778;28;20305;-79
2022/07/05 12:27:30;;;;;;;;;;;35.90;50.70;;;;;;4959285;28;19996;-80
2022/07/05 12:29:56;;;;;;;;;;;36.30;50.60;;;;;;4976664;28;20005;-80
2022/07/05 12:32:22;;;;;;;;;;;35.80;51.10;;;;;;4976799;28;19911;-78
2022/07/05 12:34:47;;;;;;;;;;;35.40;50.40;;;;;;4976909;28;19910;-79
2022/07/05 12:37:20;;;;;;;;;;;35.10;50.60;;;;;;4976721;28;19910;-80
2022/07/05 12:39:46;;;;;;;;;;;35.60;51.00;;;;;;4976417;28;19918;-78
2022/07/05 12:42:32;;;;;;;;;;;35.60;50.20;;;;;;4976249;28;19914;-80
2022/07/05 12:45:06;;;;;;;;;;;35.90;50.40;;;;;;4976646;28;19918;-80
2022/07/05 12:47:36;;;;;;;;;;;36.10;50.60;;;;;;4976183;28;19997;-79
2022/07/05 12:50:02;;;;;;;;;;;35.90;50.40;;;;;;4975429;28;19910;-80
2022/07/05 12:52:27;;;;;;;;;;;35.80;49.40;;;;;;4976459;28;19910;-78
2022/07/05 12:58:02;;;;;;;;;;;35.90;50.30;;;;;;4975924;28;19964;-81
2022/07/05 13:00:27;;;;;;;;;;;36.20;50.00;;;;;;4976064;28;19911;-81
2022/07/05 13:02:53;;;;;;;;;;;36.00;49.90;;;;;;4976286;28;19922;-80
2022/07/05 13:05:20;;;;;;;;;;;36.20;50.10;;;;;;4975991;28;19914;-78
2022/07/05 13:07:46;;;;;;;;;;;36.00;49.60;;;;;;4975899;28;20423;-80
2022/07/05 13:10:15;;;;;;;;;;;36.10;49.00;;;;;;4976391;28;19910;-78
2022/07/05 13:12:41;;;;;;;;;;;36.20;49.20;;;;;;4975796;28;20000;-79
2022/07/05 13:15:07;;;;;;;;;;;36.30;49.20;;;;;;4976122;28;19975;-79
2022/07/05 13:17:32;;;;;;;;;;;36.40;48.10;;;;;;4975841;28;19918;-79
2022/07/05 13:19:59;;;;;;;;;;;36.60;47.80;;;;;;4975757;28;20387;-79
2022/07/05 13:22:25;;;;;;;;;;;36.40;48.10;;;;;;4975546;28;20287;-79
2022/07/05 13:24:51;;;;;;;;;;;35.90;49.10;;;;;;4975415;28;19910;-79
2022/07/05 13:27:16;;;;;;;;;;;35.90;48.90;;;;;;4975736;28;19916;-79
2022/07/05 13:29:42;;;;;;;;;;;35.90;48.50;;;;;;4975399;28;20311;-79
2022/07/05 13:32:08;;;;;;;;;;;36.20;48.40;;;;;;4958088;28;19911;-78
2022/07/05 13:34:33;;;;;;;;;;;35.90;48.10;;;;;;4975575;28;19957;-80
2022/07/05 13:37:01;;;;;;;;;;;36.30;48.40;;;;;;4975714;28;19914;-79
2022/07/05 13:39:27;;;;;;;;;;;36.50;47.90;;;;;;4975309;28;19910;-79
2022/07/05 13:41:54;;;;;;;;;;;36.80;47.70;;;;;;4975204;28;20282;-80
2022/07/05 13:44:20;;;;;;;;;;;36.30;47.40;;;;;;4975245;28;19914;-79
2022/07/05 13:46:46;;;;;;;;;;;36.50;47.10;;;;;;4975667;28;19980;-80
2022/07/05 13:49:11;;;;;;;;;;;36.80;47.30;;;;;;4975129;28;20442;-80
2022/07/05 13:51:37;;;;;;;;;;;36.40;46.70;;;;;;4974865;28;20279;-80
2022/07/05 13:54:03;;;;;;;;;;;35.70;47.80;;;;;;4975141;28;19910;-79
2022/07/05 13:56:28;;;;;;;;;;;35.80;47.60;;;;;;4975463;28;19910;-79
2022/07/05 13:58:55;;;;;;;;;;;35.60;47.40;;;;;;4975397;28;19994;-79
2022/07/05 14:01:26;;;;;;;;;;;36.00;47.50;;;;;;4974736;28;20371;-80
2022/07/05 14:03:56;;;;;;;;;;;36.10;47.20;;;;;;4974969;28;19914;-80
2022/07/05 14:06:22;;;;;;;;;;;36.30;47.20;;;;;;4975036;28;19911;-79
2022/07/05 14:08:47;;;;;;;;;;;36.90;46.20;;;;;;4975157;28;19910;-80
2022/07/05 14:11:13;;;;;;;;;;;36.60;45.40;;;;;;4974936;28;19979;-79
2022/07/05 14:13:39;;;;;;;;;;;35.90;46.00;;;;;;4974889;28;19921;-79
2022/07/05 14:16:05;;;;;;;;;;;36.30;46.70;;;;;;4975176;28;19910;-79
2022/07/05 14:18:31;;;;;;;;;;;36.70;45.90;;;;;;4974942;28;19910;-80
2022/07/05 14:20:56;;;;;;;;;;;36.20;45.50;;;;;;4974890;28;19911;-80
2022/07/05 14:23:22;;;;;;;;;;;36.50;46.00;;;;;;4974758;28;19914;-80
2022/07/05 14:25:48;;;;;;;;;;;36.60;45.60;;;;;;4957421;28;19917;-80
2022/07/05 14:28:13;;;;;;;;;;;36.50;44.80;;;;;;4974987;28;19911;-80